Time;durP1;ratioP1;P1;durP2;ratioP2;P2;SDS_P1;SDS_P2;PMS_P1;PMS_P2;Temp;Humidity;BMP_temperature;BMP_pressure;BME280_temperature;BME280_humidity;BME280_pressure;Samples;Min_cycle;Max_cycle;Signal;HPM_P1;HPM_P2
2022/09/28 00:00:21;;;;;;;0.13;0.13;;;;;;;;;;5035174;28;20061;-76
2022/09/28 00:02:47;;;;;;;0.20;0.20;;;;;;;;;;5053343;28;20033;-75
2022/09/28 00:05:13;;;;;;;0.10;0.10;;;;;;;;;;5035283;28;20490;-75
2022/09/28 00:07:38;;;;;;;0.20;0.20;;;;;;;;;;5018802;28;20044;-76
2022/09/28 00:10:04;;;;;;;0.10;0.10;;;;;;;;;;5053449;28;20484;-75
2022/09/28 00:12:30;;;;;;;0.45;0.45;;;;;;;;;;5052892;28;20021;-74
2022/09/28 00:14:55;;;;;;;0.10;0.10;;;;;;;;;;5034976;28;20053;-76
2022/09/28 00:17:22;;;;;;;0.10;0.10;;;;;;;;;;5053107;28;20028;-75
2022/09/28 00:19:48;;;;;;;0.20;0.20;;;;;;;;;;5018779;28;20734;-75
2022/09/28 00:22:14;;;;;;;0.15;0.15;;;;;;;;;;5053295;28;20037;-75
2022/09/28 00:24:40;;;;;;;0.10;0.10;;;;;;;;;;5065723;28;20039;-74
2022/09/28 00:27:05;;;;;;;0.65;0.65;;;;;;;;;;5072723;28;20017;-75
2022/09/28 00:29:33;;;;;;;2.38;2.28;;;;;;;;;;5054353;28;20033;-74
2022/09/28 00:32:01;;;;;;;0.10;0.10;;;;;;;;;;5072374;28;20060;-75
2022/09/28 00:34:27;;;;;;;1.15;1.08;;;;;;;;;;5052808;28;20544;-74
2022/09/28 00:36:53;;;;;;;0.20;0.20;;;;;;;;;;5034989;28;20029;-74
2022/09/28 00:39:18;;;;;;;0.10;0.10;;;;;;;;;;5053541;28;20369;-76
2022/09/28 00:41:45;;;;;;;0.20;0.20;;;;;;;;;;5034770;28;20551;-74
2022/09/28 00:44:20;;;;;;;0.20;0.20;;;;;;;;;;5018792;28;20120;-77
2022/09/28 00:46:45;;;;;;;0.15;0.15;;;;;;;;;;5052944;28;20434;-74
2022/09/28 00:49:14;;;;;;;0.20;0.20;;;;;;;;;;5035047;28;20028;-75
2022/09/28 00:51:41;;;;;;;0.30;0.30;;;;;;;;;;5018606;28;20112;-75
2022/09/28 00:54:08;;;;;;;0.20;0.20;;;;;;;;;;5043347;28;20391;-76
2022/09/28 00:56:35;;;;;;;0.20;0.20;;;;;;;;;;5072950;28;20426;-75
2022/09/28 00:59:00;;;;;;;0.17;0.17;;;;;;;;;;5054935;28;20028;-75
2022/09/28 01:01:27;;;;;;;2.80;2.60;;;;;;;;;;5054893;28;20029;-74
2022/09/28 01:03:53;;;;;;;0.10;0.10;;;;;;;;;;5038074;28;20029;-75
2022/09/28 01:06:20;;;;;;;0.20;0.20;;;;;;;;;;5054633;28;20029;-75
2022/09/28 01:08:49;;;;;;;0.20;0.20;;;;;;;;;;5067604;28;20021;-75
2022/09/28 01:11:15;;;;;;;0.20;0.20;;;;;;;;;;5034760;28;20021;-74
2022/09/28 01:13:41;;;;;;;0.20;0.20;;;;;;;;;;5021060;28;20033;-74
2022/09/28 01:16:29;;;;;;;0.20;0.20;;;;;;;;;;5022149;28;20025;-73
2022/09/28 01:19:05;;;;;;;0.20;0.20;;;;;;;;;;5031976;28;20041;-73
2022/09/28 01:21:48;;;;;;;0.20;0.20;;;;;;;;;;5021820;28;20024;-74
2022/09/28 01:24:14;;;;;;;0.30;0.30;;;;;;;;;;5063089;28;20037;-74
2022/09/28 01:26:46;;;;;;;0.20;0.20;;;;;;;;;;5058236;28;20017;-73
2022/09/28 01:29:23;;;;;;;0.30;0.30;;;;;;;;;;5075965;28;20035;-74
2022/09/28 01:31:55;;;;;;;0.10;0.10;;;;;;;;;;5075868;28;20021;-73
2022/09/28 01:34:26;;;;;;;0.15;0.15;;;;;;;;;;5058491;28;20041;-73
2022/09/28 01:36:53;;;;;;;0.30;0.30;;;;;;;;;;5076293;28;20479;-73
2022/09/28 01:39:26;;;;;;;0.20;0.20;;;;;;;;;;5052307;28;20032;-74
2022/09/28 01:41:54;;;;;;;0.20;0.20;;;;;;;;;;5065529;28;20025;-73
2022/09/28 01:44:21;;;;;;;0.20;0.20;;;;;;;;;;5057911;28;20064;-74
2022/09/28 01:46:47;;;;;;;0.20;0.20;;;;;;;;;;5041443;28;20035;-75
2022/09/28 01:49:16;;;;;;;0.30;0.30;;;;;;;;;;5058054;28;20384;-75
2022/09/28 01:51:50;;;;;;;0.10;0.10;;;;;;;;;;5075907;28;20418;-75
2022/09/28 01:54:25;;;;;;;0.10;0.10;;;;;;;;;;5052255;28;20033;-75
2022/09/28 01:56:57;;;;;;;0.10;0.10;;;;;;;;;;5054624;28;20028;-74
2022/09/28 01:59:24;;;;;;;0.10;0.10;;;;;;;;;;5057936;28;20029;-74
2022/09/28 02:02:11;;;;;;;0.13;0.13;;;;;;;;;;5075738;28;20104;-73
2022/09/28 02:04:42;;;;;;;2.22;2.05;;;;;;;;;;5057669;28;20033;-74
2022/09/28 02:07:13;;;;;;;3.85;1.33;;;;;;;;;;5075450;28;20025;-73
2022/09/28 02:09:48;;;;;;;0.20;0.20;;;;;;;;;;5066385;28;20379;-74
2022/09/28 02:12:21;;;;;;;1.13;1.08;;;;;;;;;;5055986;28;20095;-74
2022/09/28 02:14:48;;;;;;;0.10;0.10;;;;;;;;;;5055348;28;20056;-74
2022/09/28 02:17:15;;;;;;;0.17;0.17;;;;;;;;;;5037566;28;20029;-74
2022/09/28 02:19:41;;;;;;;1.05;1.00;;;;;;;;;;5039454;28;20048;-74
2022/09/28 02:22:07;;;;;;;1.27;0.65;;;;;;;;;;5047440;28;20119;-73
2022/09/28 02:24:41;;;;;;;0.17;0.17;;;;;;;;;;5067365;28;20421;-74
2022/09/28 02:27:14;;;;;;;0.20;0.20;;;;;;;;;;5064709;28;20064;-74
2022/09/28 02:29:40;;;;;;;0.20;0.20;;;;;;;;;;5040663;28;20034;-74
2022/09/28 02:32:05;;;;;;;0.10;0.10;;;;;;;;;;5075393;28;20077;-73
2022/09/28 02:34:32;;;;;;;0.47;0.47;;;;;;;;;;5074748;28;20043;-73
2022/09/28 02:36:58;;;;;;;0.20;0.20;;;;;;;;;;5040818;28;20024;-74
2022/09/28 02:39:23;;;;;;;0.40;0.40;;;;;;;;;;5057095;28;20216;-74
2022/09/28 02:42:07;;;;;;;4.38;1.55;;;;;;;;;;5040716;28;20358;-74
2022/09/28 02:44:34;;;;;;;0.10;0.10;;;;;;;;;;5054774;28;20127;-75
2022/09/28 02:47:18;;;;;;;0.20;0.20;;;;;;;;;;5054569;28;20112;-74
2022/09/28 02:49:48;;;;;;;0.20;0.20;;;;;;;;;;5020736;28;20112;-75
2022/09/28 02:52:20;;;;;;;0.17;0.17;;;;;;;;;;5036930;28;20127;-74
2022/09/28 02:55:04;;;;;;;0.13;0.13;;;;;;;;;;5036653;28;20033;-74
2022/09/28 02:57:36;;;;;;;0.20;0.20;;;;;;;;;;5068401;28;20116;-74
2022/09/28 03:00:07;;;;;;;0.30;0.30;;;;;;;;;;5056603;28;20081;-74
2022/09/28 03:02:33;;;;;;;0.10;0.10;;;;;;;;;;5048359;28;20036;-74
2022/09/28 03:05:13;;;;;;;0.10;0.10;;;;;;;;;;5050518;28;20123;-74
2022/09/28 03:07:40;;;;;;;0.17;0.17;;;;;;;;;;5032998;28;20858;-73
2022/09/28 03:10:12;;;;;;;3.30;2.45;;;;;;;;;;5034405;28;20025;-74
2022/09/28 03:12:38;;;;;;;0.13;0.13;;;;;;;;;;5036022;28;20490;-74
2022/09/28 03:15:04;;;;;;;0.20;0.20;;;;;;;;;;5070083;28;20056;-74
2022/09/28 03:17:30;;;;;;;0.10;0.10;;;;;;;;;;5052298;28;20037;-73
2022/09/28 03:19:55;;;;;;;0.10;0.10;;;;;;;;;;5052507;28;20468;-74
2022/09/28 03:22:21;;;;;;;0.10;0.10;;;;;;;;;;5052458;28;20028;-73
2022/09/28 03:24:46;;;;;;;0.20;0.20;;;;;;;;;;5069739;28;20017;-73
2022/09/28 03:27:12;;;;;;;0.13;0.13;;;;;;;;;;5035826;28;20424;-73
2022/09/28 03:29:38;;;;;;;0.10;0.10;;;;;;;;;;5050937;28;20078;-73
2022/09/28 03:32:05;;;;;;;0.10;0.10;;;;;;;;;;5051930;28;20429;-74
2022/09/28 03:34:31;;;;;;;0.20;0.20;;;;;;;;;;5035316;28;20029;-75
2022/09/28 03:36:56;;;;;;;0.20;0.20;;;;;;;;;;5051635;28;20037;-74
2022/09/28 03:39:22;;;;;;;0.15;0.15;;;;;;;;;;5050598;28;20111;-74
2022/09/28 03:41:47;;;;;;;0.95;0.95;;;;;;;;;;5069955;28;20399;-74
2022/09/28 03:44:13;;;;;;;1.05;1.05;;;;;;;;;;5052353;28;20025;-73
2022/09/28 03:46:39;;;;;;;1.85;1.55;;;;;;;;;;5052005;28;20029;-74
2022/09/28 03:49:08;;;;;;;0.17;0.17;;;;;;;;;;5052329;28;20032;-73
2022/09/28 03:51:33;;;;;;;0.20;0.20;;;;;;;;;;5034899;28;20032;-74
2022/09/28 03:53:59;;;;;;;0.15;0.15;;;;;;;;;;5068192;28;20369;-74
2022/09/28 03:56:24;;;;;;;0.20;0.20;;;;;;;;;;5032209;28;20051;-74
2022/09/28 03:58:50;;;;;;;0.20;0.20;;;;;;;;;;5049864;28;20483;-75
2022/09/28 04:01:16;;;;;;;0.50;0.50;;;;;;;;;;5058837;28;20086;-75
2022/09/28 04:03:43;;;;;;;0.20;0.20;;;;;;;;;;5069409;28;20040;-76
2022/09/28 04:06:09;;;;;;;0.10;0.10;;;;;;;;;;5050382;28;20112;-74
2022/09/28 04:08:34;;;;;;;0.20;0.20;;;;;;;;;;5051036;28;20029;-75
2022/09/28 04:11:00;;;;;;;0.20;0.20;;;;;;;;;;5069291;28;20033;-75
2022/09/28 04:13:26;;;;;;;0.20;0.20;;;;;;;;;;5051299;28;20029;-75
2022/09/28 04:15:53;;;;;;;0.20;0.20;;;;;;;;;;5034058;28;20046;-74
2022/09/28 04:18:19;;;;;;;0.40;0.40;;;;;;;;;;5050818;28;20028;-74
2022/09/28 04:21:07;;;;;;;0.40;0.40;;;;;;;;;;5067887;28;20114;-74
2022/09/28 04:23:45;;;;;;;0.10;0.10;;;;;;;;;;5035904;28;20044;-75
2022/09/28 04:26:15;;;;;;;0.10;0.10;;;;;;;;;;5033945;28;20029;-73
2022/09/28 04:31:26;;;;;;;0.15;0.15;;;;;;;;;;5068224;28;20024;-75
2022/09/28 04:33:52;;;;;;;0.17;0.17;;;;;;;;;;5049605;28;20518;-75
2022/09/28 04:36:18;;;;;;;0.20;0.20;;;;;;;;;;5033749;28;20118;-75
2022/09/28 04:38:45;;;;;;;0.90;0.90;;;;;;;;;;5029933;28;20029;-76
2022/09/28 04:41:11;;;;;;;0.20;0.20;;;;;;;;;;5042999;28;20123;-76
2022/09/28 04:43:38;;;;;;;0.13;0.13;;;;;;;;;;5046416;28;20017;-76
2022/09/28 04:46:06;;;;;;;0.10;0.10;;;;;;;;;;5041075;28;20123;-75
2022/09/28 04:48:40;;;;;;;6.60;2.28;;;;;;;;;;5035712;28;20025;-76
2022/09/28 04:51:24;;;;;;;0.20;0.20;;;;;;;;;;5053320;28;20178;-75
2022/09/28 04:53:49;;;;;;;0.15;0.15;;;;;;;;;;5053388;28;20139;-74
2022/09/28 04:56:16;;;;;;;0.17;0.17;;;;;;;;;;5035068;28;20025;-78
2022/09/28 04:58:42;;;;;;;0.20;0.20;;;;;;;;;;5052325;28;20033;-78
2022/09/28 05:01:14;;;;;;;0.10;0.10;;;;;;;;;;5027423;28;20107;-75
2022/09/28 05:03:57;;;;;;;0.15;0.15;;;;;;;;;;5061691;28;20032;-75
2022/09/28 05:06:35;;;;;;;0.10;0.10;;;;;;;;;;5045841;28;20037;-75
2022/09/28 05:09:04;;;;;;;0.20;0.20;;;;;;;;;;5035877;28;20029;-74
2022/09/28 05:11:30;;;;;;;0.20;0.20;;;;;;;;;;5036932;28;20271;-74
2022/09/28 05:13:55;;;;;;;0.20;0.20;;;;;;;;;;5045204;28;20048;-73
2022/09/28 05:16:24;;;;;;;0.90;0.90;;;;;;;;;;5043617;28;20018;-74
2022/09/28 05:19:11;;;;;;;0.55;0.55;;;;;;;;;;5038803;28;20037;-75
2022/09/28 05:21:36;;;;;;;1.95;1.85;;;;;;;;;;5047518;28;20023;-75
2022/09/28 05:24:06;;;;;;;2.22;2.13;;;;;;;;;;5047909;28;20033;-76
2022/09/28 05:26:33;;;;;;;0.20;0.20;;;;;;;;;;5045033;28;20021;-74
2022/09/28 05:28:58;;;;;;;0.17;0.17;;;;;;;;;;5044359;28;20028;-74
2022/09/28 05:31:53;;;;;;;0.20;0.20;;;;;;;;;;5042715;28;20035;-74
2022/09/28 05:34:45;;;;;;;0.10;0.10;;;;;;;;;;5057878;28;20049;-74
2022/09/28 05:37:17;;;;;;;0.10;0.10;;;;;;;;;;5047457;28;20033;-74
2022/09/28 05:39:45;;;;;;;0.10;0.10;;;;;;;;;;5034396;28;20032;-76
2022/09/28 05:42:11;;;;;;;0.20;0.20;;;;;;;;;;5034734;28;20380;-74
2022/09/28 05:44:37;;;;;;;0.10;0.10;;;;;;;;;;5063383;28;20028;-76
2022/09/28 05:47:03;;;;;;;1.15;1.15;;;;;;;;;;5036214;28;20036;-76
2022/09/28 05:49:30;;;;;;;0.10;0.10;;;;;;;;;;5052224;28;20033;-76
2022/09/28 05:51:57;;;;;;;0.10;0.10;;;;;;;;;;5054378;28;20059;-75
2022/09/28 05:54:23;;;;;;;6.55;1.95;;;;;;;;;;5041448;28;20032;-75
2022/09/28 05:56:49;;;;;;;0.30;0.30;;;;;;;;;;5060405;28;20361;-75
2022/09/28 05:59:15;;;;;;;0.17;0.17;;;;;;;;;;5041628;28;20476;-73
2022/09/28 06:01:41;;;;;;;0.20;0.20;;;;;;;;;;5060765;28;20036;-74
2022/09/28 06:04:08;;;;;;;0.13;0.13;;;;;;;;;;5045029;28;20025;-75
2022/09/28 06:06:37;;;;;;;0.20;0.20;;;;;;;;;;5061519;28;20020;-75
2022/09/28 06:09:02;;;;;;;0.10;0.10;;;;;;;;;;5059771;28;20467;-75
2022/09/28 06:11:54;;;;;;;0.20;0.20;;;;;;;;;;5056759;28;20036;-76
2022/09/28 06:14:24;;;;;;;0.20;0.20;;;;;;;;;;5044627;28;20063;-75
2022/09/28 06:16:51;;;;;;;0.20;0.20;;;;;;;;;;5053580;28;20085;-75
2022/09/28 06:19:17;;;;;;;0.17;0.17;;;;;;;;;;5071931;28;20467;-75
2022/09/28 06:22:08;;;;;;;0.20;0.20;;;;;;;;;;5067170;28;20567;-76
2022/09/28 06:24:43;;;;;;;0.20;0.20;;;;;;;;;;5053501;28;20035;-76
2022/09/28 06:27:08;;;;;;;0.30;0.30;;;;;;;;;;5053225;28;20468;-73
2022/09/28 06:29:34;;;;;;;0.20;0.20;;;;;;;;;;5053607;28;20035;-74
2022/09/28 06:32:00;;;;;;;0.20;0.20;;;;;;;;;;5053296;28;20537;-73
2022/09/28 06:34:25;;;;;;;0.28;0.28;;;;;;;;;;5071300;28;20501;-74
2022/09/28 06:36:51;;;;;;;0.10;0.10;;;;;;;;;;5052569;28;20032;-76
2022/09/28 06:39:17;;;;;;;0.20;0.20;;;;;;;;;;5070969;28;20261;-76
2022/09/28 06:41:43;;;;;;;1.95;1.85;;;;;;;;;;5070958;28;20438;-76
2022/09/28 06:44:14;;;;;;;0.35;0.35;;;;;;;;;;5037208;28;20093;-76
2022/09/28 06:46:58;;;;;;;0.28;0.28;;;;;;;;;;5055882;28;20090;-75
2022/09/28 06:49:55;;;;;;;0.20;0.20;;;;;;;;;;5025825;28;20153;-74
2022/09/28 06:52:40;;;;;;;0.10;0.10;;;;;;;;;;5071249;28;20039;-74
2022/09/28 06:55:14;;;;;;;0.30;0.30;;;;;;;;;;5052542;28;20048;-74
2022/09/28 06:57:42;;;;;;;0.30;0.30;;;;;;;;;;5069065;28;20021;-76
2022/09/28 07:00:08;;;;;;;1.75;1.65;;;;;;;;;;5048861;28;20031;-75
2022/09/28 07:02:33;;;;;;;1.85;1.75;;;;;;;;;;5042625;28;20029;-77
2022/09/28 07:05:18;;;;;;;0.20;0.20;;;;;;;;;;5050361;28;20083;-76
2022/09/28 07:08:16;;;;;;;0.50;0.50;;;;;;;;;;5050612;28;20391;-75
2022/09/28 07:10:56;;;;;;;1.80;1.70;;;;;;;;;;5018090;28;20495;-75
2022/09/28 07:13:43;;;;;;;0.30;0.30;;;;;;;;;;5019092;28;20037;-76
2022/09/28 07:16:11;;;;;;;0.10;0.10;;;;;;;;;;5032659;28;20021;-75
2022/09/28 07:18:37;;;;;;;0.20;0.20;;;;;;;;;;5016329;28;20127;-77
2022/09/28 07:21:03;;;;;;;0.20;0.20;;;;;;;;;;5057470;28;20154;-77
2022/09/28 07:23:30;;;;;;;0.10;0.10;;;;;;;;;;5043335;28;20029;-75
2022/09/28 07:26:33;;;;;;;0.25;0.25;;;;;;;;;;5070000;28;20074;-76
2022/09/28 07:29:12;;;;;;;0.20;0.20;;;;;;;;;;5046336;28;20051;-74
2022/09/28 07:31:38;;;;;;;0.20;0.20;;;;;;;;;;5042956;28;20029;-75
2022/09/28 07:34:23;;;;;;;0.20;0.20;;;;;;;;;;5060019;28;20116;-74
2022/09/28 07:37:12;;;;;;;0.20;0.20;;;;;;;;;;5052110;28;20037;-75
2022/09/28 07:42:23;;;;;;;0.65;0.63;;;;;;;;;;5025889;28;20499;-75
2022/09/28 07:44:49;;;;;;;0.10;0.10;;;;;;;;;;5041524;28;20036;-78
2022/09/28 07:47:16;;;;;;;0.20;0.20;;;;;;;;;;5041807;28;20124;-76
2022/09/28 07:50:16;;;;;;;0.20;0.20;;;;;;;;;;5000522;28;20562;-77
2022/09/28 07:52:54;;;;;;;0.20;0.20;;;;;;;;;;5049776;28;20124;-79
2022/09/28 07:55:28;;;;;;;0.25;0.25;;;;;;;;;;5058989;28;20036;-77
2022/09/28 07:58:20;;;;;;;0.15;0.15;;;;;;;;;;5039587;28;20081;-74
2022/09/28 08:01:09;;;;;;;0.32;0.30;;;;;;;;;;5041757;28;20120;-77
2022/09/28 08:03:35;;;;;;;1.27;1.15;;;;;;;;;;5042032;28;20028;-77
2022/09/28 08:06:02;;;;;;;0.30;0.30;;;;;;;;;;5029794;28;20116;-76
2022/09/28 08:08:28;;;;;;;0.20;0.20;;;;;;;;;;5063307;28;20372;-77
2022/09/28 08:10:55;;;;;;;0.20;0.20;;;;;;;;;;5055917;28;20036;-75
2022/09/28 08:13:45;;;;;;;0.20;0.20;;;;;;;;;;5049347;28;20017;-76
2022/09/28 08:16:18;;;;;;;0.20;0.20;;;;;;;;;;5047819;28;20119;-75
2022/09/28 08:18:51;;;;;;;0.20;0.20;;;;;;;;;;5051375;28;20119;-75
2022/09/28 08:24:04;;;;;;;1.45;0.38;;;;;;;;;;5051590;28;20509;-74
2022/09/28 08:26:30;;;;;;;0.17;0.17;;;;;;;;;;5051458;28;20035;-76
2022/09/28 08:28:56;;;;;;;0.22;0.22;;;;;;;;;;5050237;28;20021;-79
2022/09/28 08:31:48;;;;;;;0.20;0.20;;;;;;;;;;5025886;28;20040;-78
2022/09/28 08:34:37;;;;;;;4.63;0.93;;;;;;;;;;5050284;28;20051;-75
2022/09/28 08:37:21;;;;;;;0.20;0.20;;;;;;;;;;5066271;28;20098;-78
2022/09/28 08:40:25;;;;;;;2.50;1.20;;;;;;;;;;4970470;28;20806;-77
2022/09/28 08:43:34;;;;;;;0.20;0.20;;;;;;;;;;4984257;28;20541;-78
2022/09/28 08:46:22;;;;;;;0.20;0.20;;;;;;;;;;5045602;28;20436;-76
2022/09/28 08:49:34;;;;;;;0.20;0.20;;;;;;;;;;5065068;28;20037;-75
2022/09/28 08:52:27;;;;;;;0.20;0.20;;;;;;;;;;5068146;28;20036;-76
2022/09/28 08:55:15;;;;;;;8.02;1.55;;;;;;;;;;5049106;28;20044;-73
2022/09/28 08:57:46;;;;;;;0.20;0.20;;;;;;;;;;5029474;28;20021;-75
2022/09/28 09:00:18;;;;;;;1.33;0.50;;;;;;;;;;5046067;28;20283;-77
2022/09/28 09:02:45;;;;;;;0.20;0.20;;;;;;;;;;5044029;28;20045;-74
2022/09/28 09:05:19;;;;;;;1.20;0.40;;;;;;;;;;5034962;28;20033;-76
2022/09/28 09:08:02;;;;;;;7.57;1.50;;;;;;;;;;5049086;28;20032;-77
2022/09/28 09:10:37;;;;;;;8.70;1.17;;;;;;;;;;5014484;28;20395;-78
2022/09/28 09:13:18;;;;;;;3.92;0.55;;;;;;;;;;5048328;28;20368;-75
2022/09/28 09:15:46;;;;;;;0.65;0.60;;;;;;;;;;5030539;28;20603;-76
2022/09/28 09:18:22;;;;;;;0.28;0.28;;;;;;;;;;5030755;28;20044;-74
2022/09/28 09:21:23;;;;;;;0.68;0.68;;;;;;;;;;5030832;28;20033;-78
2022/09/28 09:23:56;;;;;;;0.32;0.30;;;;;;;;;;5048594;28;20556;-78
2022/09/28 09:26:37;;;;;;;0.20;0.20;;;;;;;;;;5048673;28;20491;-78
2022/09/28 09:29:12;;;;;;;0.20;0.20;;;;;;;;;;5030769;28;20403;-78
2022/09/28 09:31:51;;;;;;;0.20;0.20;;;;;;;;;;5030633;28;20025;-76
2022/09/28 09:34:23;;;;;;;2.28;0.30;;;;;;;;;;5016549;28;20068;-76
2022/09/28 09:37:23;;;;;;;0.20;0.20;;;;;;;;;;5008197;28;20106;-75
2022/09/28 09:40:18;;;;;;;0.30;0.30;;;;;;;;;;5049631;28;20044;-76
2022/09/28 09:43:25;;;;;;;0.20;0.20;;;;;;;;;;5052220;28;20502;-77
2022/09/28 09:46:20;;;;;;;0.20;0.20;;;;;;;;;;5028424;28;20064;-77
2022/09/28 09:49:27;;;;;;;2.40;0.40;;;;;;;;;;4970753;28;20526;-77
2022/09/28 09:52:11;;;;;;;1.02;0.52;;;;;;;;;;5038334;28;20095;-75
2022/09/28 09:54:37;;;;;;;0.17;0.17;;;;;;;;;;5051966;28;20376;-75
2022/09/28 09:57:06;;;;;;;2.42;0.22;;;;;;;;;;5033907;28;20365;-77
2022/09/28 09:59:44;;;;;;;1.05;0.52;;;;;;;;;;5037325;28;20017;-78
2022/09/28 10:02:23;;;;;;;5.95;1.30;;;;;;;;;;5047789;28;20039;-77
2022/09/28 10:04:58;;;;;;;0.25;0.25;;;;;;;;;;5044279;28;20024;-77
2022/09/28 10:07:42;;;;;;;0.82;0.30;;;;;;;;;;5045947;28;20064;-79
2022/09/28 10:10:16;;;;;;;0.28;0.28;;;;;;;;;;5066888;28;20490;-78
2022/09/28 10:12:48;;;;;;;1.55;0.52;;;;;;;;;;5033271;28;20110;-77
2022/09/28 10:15:18;;;;;;;0.10;0.10;;;;;;;;;;5051737;28;20503;-77
2022/09/28 10:17:54;;;;;;;0.77;0.77;;;;;;;;;;5052911;28;20060;-77
2022/09/28 10:20:39;;;;;;;0.20;0.20;;;;;;;;;;5070173;28;20040;-75
2022/09/28 10:23:26;;;;;;;1.00;1.00;;;;;;;;;;5036455;28;20052;-76
2022/09/28 10:25:53;;;;;;;0.47;0.47;;;;;;;;;;5051364;28;20040;-76
2022/09/28 10:28:21;;;;;;;0.20;0.20;;;;;;;;;;5051805;28;20021;-75
2022/09/28 10:30:47;;;;;;;0.20;0.20;;;;;;;;;;5050660;28;20060;-74
2022/09/28 10:33:29;;;;;;;3.45;1.23;;;;;;;;;;5067561;28;20554;-76
2022/09/28 10:35:56;;;;;;;3.20;1.00;;;;;;;;;;5050033;28;20464;-77
2022/09/28 10:38:23;;;;;;;0.20;0.20;;;;;;;;;;5051190;28;20036;-78
2022/09/28 10:40:57;;;;;;;0.35;0.35;;;;;;;;;;5051112;28;20032;-79
2022/09/28 10:44:13;;;;;;;3.95;1.30;;;;;;;;;;5051545;28;20032;-80
2022/09/28 10:46:59;;;;;;;0.20;0.20;;;;;;;;;;5051080;28;20029;-73
2022/09/28 10:49:27;;;;;;;7.75;1.80;;;;;;;;;;5034494;28;20074;-76
2022/09/28 10:51:56;;;;;;;0.20;0.20;;;;;;;;;;5052001;28;20086;-75
2022/09/28 10:54:30;;;;;;;0.38;0.35;;;;;;;;;;5037457;28;20045;-77
2022/09/28 10:56:57;;;;;;;10.10;2.00;;;;;;;;;;5070891;28;20060;-77
2022/09/28 10:59:30;;;;;;;2.05;1.00;;;;;;;;;;5052887;28;20433;-79
2022/09/28 11:02:20;;;;;;;1.98;0.75;;;;;;;;;;5053022;28;20476;-74
2022/09/28 11:04:51;;;;;;;0.73;0.30;;;;;;;;;;5052254;28;20549;-76
2022/09/28 11:07:18;;;;;;;1.67;0.73;;;;;;;;;;5036285;28;20051;-76
2022/09/28 11:09:46;;;;;;;0.22;0.22;;;;;;;;;;5070578;28;20576;-80
2022/09/28 11:12:14;;;;;;;0.20;0.20;;;;;;;;;;5070508;28;20033;-80
2022/09/28 11:14:42;;;;;;;1.17;1.05;;;;;;;;;;5048697;28;20052;-76
2022/09/28 11:17:26;;;;;;;0.20;0.20;;;;;;;;;;5033542;28;20372;-79
2022/09/28 11:19:52;;;;;;;0.85;0.85;;;;;;;;;;5049419;28;20131;-76
2022/09/28 11:22:40;;;;;;;0.22;0.22;;;;;;;;;;5032898;28;20029;-80
2022/09/28 11:25:16;;;;;;;0.20;0.20;;;;;;;;;;5048919;28;20040;-80
2022/09/28 11:28:03;;;;;;;0.28;0.28;;;;;;;;;;5048864;28;20025;-78
2022/09/28 11:30:29;;;;;;;0.95;0.52;;;;;;;;;;5048864;28;20082;-79
2022/09/28 11:33:21;;;;;;;0.25;0.25;;;;;;;;;;5048774;28;20132;-78
2022/09/28 11:36:13;;;;;;;0.20;0.20;;;;;;;;;;5046868;28;20132;-78
2022/09/28 11:38:57;;;;;;;0.30;0.30;;;;;;;;;;5048792;28;20124;-77
2022/09/28 11:41:57;;;;;;;1.35;0.77;;;;;;;;;;5049871;28;20034;-76
2022/09/28 11:44:22;;;;;;;4.10;0.82;;;;;;;;;;5048474;28;20053;-76
2022/09/28 11:47:29;;;;;;;0.22;0.22;;;;;;;;;;5048810;28;20484;-77
2022/09/28 11:50:13;;;;;;;0.30;0.30;;;;;;;;;;5035515;28;20037;-76
2022/09/28 11:52:42;;;;;;;1.95;0.45;;;;;;;;;;5042385;28;20158;-76
2022/09/28 11:55:09;;;;;;;0.75;0.50;;;;;;;;;;5048505;28;20060;-75
2022/09/28 11:57:37;;;;;;;1.33;0.73;;;;;;;;;;5048792;28;20030;-75
2022/09/28 12:00:09;;;;;;;3.10;1.20;;;;;;;;;;5034279;28;20080;-76
2022/09/28 12:02:45;;;;;;;0.82;0.82;;;;;;;;;;5045062;28;20068;-76
2022/09/28 12:05:11;;;;;;;0.45;0.40;;;;;;;;;;5028093;28;20029;-76
2022/09/28 12:07:42;;;;;;;1.55;0.95;;;;;;;;;;5028531;28;20362;-76
2022/09/28 12:10:19;;;;;;;1.45;1.27;;;;;;;;;;5030000;28;20025;-76
2022/09/28 12:12:45;;;;;;;0.20;0.20;;;;;;;;;;5047862;28;20457;-75
2022/09/28 12:15:14;;;;;;;0.20;0.20;;;;;;;;;;5028210;28;20140;-75
2022/09/28 12:18:04;;;;;;;0.57;0.50;;;;;;;;;;5048854;28;20480;-75
2022/09/28 12:20:31;;;;;;;2.58;2.38;;;;;;;;;;5043184;28;20025;-76
2022/09/28 12:23:17;;;;;;;0.15;0.15;;;;;;;;;;5035898;28;20476;-76
2022/09/28 12:25:45;;;;;;;0.40;0.40;;;;;;;;;;5044820;28;20021;-75
2022/09/28 12:28:31;;;;;;;0.28;0.28;;;;;;;;;;5028986;28;20116;-75
2022/09/28 12:30:59;;;;;;;0.20;0.20;;;;;;;;;;5022268;28;20072;-75
2022/09/28 12:33:24;;;;;;;0.30;0.30;;;;;;;;;;5047472;28;20033;-75
2022/09/28 12:35:53;;;;;;;1.52;0.50;;;;;;;;;;5046682;28;20048;-75
2022/09/28 12:38:24;;;;;;;0.20;0.20;;;;;;;;;;5049170;28;20028;-76
2022/09/28 12:40:56;;;;;;;0.28;0.28;;;;;;;;;;5048532;28;20032;-76
2022/09/28 12:43:27;;;;;;;0.20;0.20;;;;;;;;;;5049089;28;20029;-75
2022/09/28 12:45:52;;;;;;;2.47;0.50;;;;;;;;;;5048210;28;20037;-76
2022/09/28 12:48:26;;;;;;;0.20;0.20;;;;;;;;;;5048965;28;20367;-75
2022/09/28 12:51:00;;;;;;;0.30;0.30;;;;;;;;;;5041512;28;20029;-75
2022/09/28 12:53:25;;;;;;;7.28;1.40;;;;;;;;;;5027602;28;20025;-75
2022/09/28 12:55:57;;;;;;;5.57;1.15;;;;;;;;;;5025528;28;20044;-75
2022/09/28 12:58:28;;;;;;;1.45;1.35;;;;;;;;;;5027980;28;20044;-75
2022/09/28 13:00:54;;;;;;;0.30;0.30;;;;;;;;;;5028697;28;20433;-76
2022/09/28 13:03:29;;;;;;;4.80;1.55;;;;;;;;;;5029478;28;20052;-76
2022/09/28 13:05:58;;;;;;;0.65;0.40;;;;;;;;;;5029569;28;20040;-75
2022/09/28 13:08:36;;;;;;;11.07;0.93;;;;;;;;;;5028852;28;20128;-75
2022/09/28 13:11:25;;;;;;;1.05;0.43;;;;;;;;;;5030994;28;20045;-75
2022/09/28 13:14:06;;;;;;;2.00;0.43;;;;;;;;;;5027928;28;20059;-74
2022/09/28 13:16:35;;;;;;;0.43;0.32;;;;;;;;;;5032954;28;20036;-75
2022/09/28 13:19:03;;;;;;;2.30;0.82;;;;;;;;;;5050583;28;20033;-75
2022/09/28 13:21:29;;;;;;;0.23;0.23;;;;;;;;;;5050958;28;20083;-75
2022/09/28 13:23:56;;;;;;;6.57;0.52;;;;;;;;;;5053423;28;20029;-75
2022/09/28 13:26:27;;;;;;;0.40;0.30;;;;;;;;;;5052610;28;20375;-75
2022/09/28 13:28:54;;;;;;;0.60;0.30;;;;;;;;;;5052439;28;20056;-74
2022/09/28 13:31:22;;;;;;;1.80;1.00;;;;;;;;;;5051980;28;20029;-75
2022/09/28 13:33:49;;;;;;;4.95;1.98;;;;;;;;;;5034833;28;20045;-74
2022/09/28 13:36:26;;;;;;;0.30;0.30;;;;;;;;;;5052378;28;20028;-74
2022/09/28 13:38:52;;;;;;;0.20;0.20;;;;;;;;;;5052581;28;20021;-74
2022/09/28 13:41:20;;;;;;;0.45;0.32;;;;;;;;;;5052546;28;20060;-74
2022/09/28 13:43:48;;;;;;;0.20;0.20;;;;;;;;;;5034705;28;20044;-74
2022/09/28 13:46:27;;;;;;;4.25;1.15;;;;;;;;;;5052299;28;20042;-74
2022/09/28 13:49:04;;;;;;;2.42;1.05;;;;;;;;;;5052293;28;20074;-74
2022/09/28 13:51:36;;;;;;;16.40;0.70;;;;;;;;;;5052176;28;20068;-76
2022/09/28 13:54:09;;;;;;;0.30;0.30;;;;;;;;;;5034625;28;20445;-74
2022/09/28 13:56:51;;;;;;;0.30;0.30;;;;;;;;;;5034542;28;20423;-75
2022/09/28 13:59:19;;;;;;;3.63;0.47;;;;;;;;;;5034310;28;20117;-75
2022/09/28 14:01:50;;;;;;;1.83;0.33;;;;;;;;;;5051893;28;20490;-74
2022/09/28 14:04:17;;;;;;;1.88;0.45;;;;;;;;;;5017382;28;20478;-74
2022/09/28 14:06:53;;;;;;;8.00;1.48;;;;;;;;;;5051317;28;20136;-74
2022/09/28 14:09:22;;;;;;;1.83;1.17;;;;;;;;;;5052142;28;20025;-74
2022/09/28 14:11:55;;;;;;;1.15;0.45;;;;;;;;;;5051829;28;20037;-74
2022/09/28 14:14:25;;;;;;;1.65;0.68;;;;;;;;;;5033794;28;20052;-74
2022/09/28 14:17:09;;;;;;;4.10;0.80;;;;;;;;;;5033839;28;20496;-73
2022/09/28 14:19:34;;;;;;;0.20;0.20;;;;;;;;;;5050907;28;20036;-74
2022/09/28 14:22:12;;;;;;;0.20;0.20;;;;;;;;;;5033683;28;20013;-74
2022/09/28 14:24:56;;;;;;;4.88;0.80;;;;;;;;;;5051551;28;20029;-74
2022/09/28 14:27:31;;;;;;;2.35;0.82;;;;;;;;;;5051350;28;20154;-74
2022/09/28 14:30:11;;;;;;;10.13;2.03;;;;;;;;;;5033751;28;20037;-74
2022/09/28 14:32:43;;;;;;;0.30;0.30;;;;;;;;;;5051426;28;20113;-74
2022/09/28 14:35:22;;;;;;;0.38;0.38;;;;;;;;;;5051092;28;20091;-74
2022/09/28 14:41:08;;;;;;;0.32;0.32;;;;;;;;;;5033444;28;20127;-74
2022/09/28 14:43:33;;;;;;;8.38;2.00;;;;;;;;;;5051582;28;20033;-74
2022/09/28 14:46:15;;;;;;;3.10;0.93;;;;;;;;;;5051161;28;20099;-74
2022/09/28 14:49:00;;;;;;;3.17;0.88;;;;;;;;;;5033559;28;20442;-74
2022/09/28 14:51:25;;;;;;;0.65;0.43;;;;;;;;;;5033068;28;20043;-74
2022/09/28 14:53:52;;;;;;;0.22;0.22;;;;;;;;;;5051072;28;20020;-74
2022/09/28 14:56:18;;;;;;;3.13;1.25;;;;;;;;;;5032902;28;20021;-75
2022/09/28 14:58:45;;;;;;;3.38;0.88;;;;;;;;;;5050901;28;20443;-74
2022/09/28 15:01:20;;;;;;;1.95;0.55;;;;;;;;;;5016676;28;20124;-74
2022/09/28 15:03:47;;;;;;;1.08;0.30;;;;;;;;;;5051141;28;20029;-74
2022/09/28 15:06:17;;;;;;;0.50;0.50;;;;;;;;;;5032811;28;20376;-75
2022/09/28 15:08:42;;;;;;;0.20;0.20;;;;;;;;;;5050529;28;20029;-75
2022/09/28 15:11:13;;;;;;;1.50;0.73;;;;;;;;;;5057510;28;20192;-75
2022/09/28 15:13:39;;;;;;;0.47;0.47;;;;;;;;;;5029375;28;20021;-75
2022/09/28 15:16:08;;;;;;;4.80;1.15;;;;;;;;;;5041900;28;20037;-75
2022/09/28 15:18:41;;;;;;;0.20;0.20;;;;;;;;;;5036374;28;20511;-76
2022/09/28 15:21:07;;;;;;;0.20;0.20;;;;;;;;;;5055876;28;20029;-75
2022/09/28 15:23:35;;;;;;;1.27;0.73;;;;;;;;;;5057802;28;20039;-75
2022/09/28 15:26:02;;;;;;;3.53;0.77;;;;;;;;;;5068465;28;20075;-75
2022/09/28 15:28:27;;;;;;;0.20;0.20;;;;;;;;;;5061034;28;20040;-76